Time;durP1;ratioP1;P1;durP2;ratioP2;P2;SDS_P1;SDS_P2;PMS_P1;PMS_P2;Temp;Humidity;BMP_temperature;BMP_pressure;BME280_temperature;BME280_humidity;BME280_pressure;Samples;Min_cycle;Max_cycle;Signal;HPM_P1;HPM_P2
2023/10/16 00:00:33;;;;;;;;;;;21.80;50.00;;;;;;1527531;76;1105;-61
2023/10/16 00:02:35;;;;;;;;;;;21.80;50.00;;;;;;1525098;77;1352;-62
2023/10/16 00:04:37;;;;;;;;;;;21.80;49.90;;;;;;1529790;77;784;-61
2023/10/16 00:06:39;;;;;;;;;;;21.80;50.00;;;;;;1527725;77;1936;-61
2023/10/16 00:08:47;;;;;;;;;;;21.80;50.00;;;;;;1526120;76;666;-62
2023/10/16 00:10:49;;;;;;;;;;;21.80;50.00;;;;;;1519091;77;1625;-61
2023/10/16 00:12:51;;;;;;;;;;;21.80;49.90;;;;;;1526436;77;1814;-61
2023/10/16 00:14:53;;;;;;;;;;;21.80;49.90;;;;;;1528259;76;745;-61
2023/10/16 00:16:56;;;;;;;;;;;21.80;49.90;;;;;;1529733;77;1545;-61
2023/10/16 00:18:59;;;;;;;;;;;21.80;49.90;;;;;;1529277;77;748;-61
2023/10/16 00:21:06;;;;;;;;;;;21.80;49.90;;;;;;1530402;77;1146;-61
2023/10/16 00:23:08;;;;;;;;;;;21.80;49.90;;;;;;1525141;76;1641;-61
2023/10/16 00:25:09;;;;;;;;;;;21.80;49.90;;;;;;1529274;77;1667;-62
2023/10/16 00:27:14;;;;;;;;;;;21.80;49.90;;;;;;1526012;77;1932;-61
2023/10/16 00:29:19;;;;;;;;;;;21.80;49.90;;;;;;1518632;77;1501;-59
2023/10/16 00:31:21;;;;;;;;;;;21.80;49.90;;;;;;1526559;76;1693;-62
2023/10/16 00:33:23;;;;;;;;;;;21.80;49.90;;;;;;1526742;77;719;-61
2023/10/16 00:35:25;;;;;;;;;;;21.80;49.80;;;;;;1524059;76;701;-61
2023/10/16 00:37:27;;;;;;;;;;;21.80;49.70;;;;;;1525596;76;672;-61
2023/10/16 00:39:29;;;;;;;;;;;21.70;49.80;;;;;;1526112;77;768;-61
2023/10/16 00:41:31;;;;;;;;;;;21.80;49.80;;;;;;1522849;77;1088;-61
2023/10/16 00:43:33;;;;;;;;;;;21.80;49.80;;;;;;1530257;76;727;-61
2023/10/16 00:45:37;;;;;;;;;;;21.80;49.80;;;;;;1524593;77;1442;-61
2023/10/16 00:47:39;;;;;;;;;;;21.80;49.80;;;;;;1524308;77;2141;-61
2023/10/16 00:49:41;;;;;;;;;;;21.80;49.80;;;;;;1524409;77;682;-62
2023/10/16 00:51:43;;;;;;;;;;;21.70;49.80;;;;;;1527511;76;1188;-61
2023/10/16 00:53:45;;;;;;;;;;;21.80;49.90;;;;;;1527189;77;1032;-61
2023/10/16 00:55:49;;;;;;;;;;;21.80;49.80;;;;;;1529511;77;677;-61
2023/10/16 00:57:51;;;;;;;;;;;21.70;49.80;;;;;;1517107;77;1071;-61
2023/10/16 00:59:53;;;;;;;;;;;21.80;49.80;;;;;;1527459;76;1580;-61
2023/10/16 01:04:17;;;;;;;;;;;21.70;49.80;;;;;;1521026;77;1630;-62
2023/10/16 01:06:36;;;;;;;;;;;21.70;49.80;;;;;;1520811;77;742;-62
2023/10/16 01:08:28;;;;;;;;;;;21.80;49.80;;;;;;1522299;76;1932;-61
2023/10/16 01:10:32;;;;;;;;;;;21.80;49.80;;;;;;1525060;77;1178;-61
2023/10/16 01:12:36;;;;;;;;;;;21.80;49.80;;;;;;1519839;77;1665;-62
2023/10/16 01:14:37;;;;;;;;;;;21.80;49.80;;;;;;1526601;76;1569;-62
2023/10/16 01:16:39;;;;;;;;;;;21.80;49.80;;;;;;1520117;77;726;-60
2023/10/16 01:18:41;;;;;;;;;;;21.70;49.80;;;;;;1518807;77;646;-61
2023/10/16 01:20:49;;;;;;;;;;;21.80;49.80;;;;;;1523781;77;1077;-61
2023/10/16 01:22:54;;;;;;;;;;;21.80;49.70;;;;;;1520458;76;732;-61
2023/10/16 01:24:59;;;;;;;;;;;21.80;49.80;;;;;;1516906;77;814;-61
2023/10/16 01:27:14;;;;;;;;;;;21.70;49.70;;;;;;1515446;77;1920;-60
2023/10/16 01:29:10;;;;;;;;;;;21.80;49.70;;;;;;1525361;77;1758;-60
2023/10/16 01:31:13;;;;;;;;;;;21.80;49.70;;;;;;1526927;76;1112;-61
2023/10/16 01:33:16;;;;;;;;;;;21.70;49.70;;;;;;1528446;77;734;-61
2023/10/16 01:35:18;;;;;;;;;;;21.70;49.70;;;;;;1518476;77;673;-60
2023/10/16 01:37:20;;;;;;;;;;;21.80;49.70;;;;;;1519399;77;766;-61
2023/10/16 01:41:42;;;;;;;;;;;21.80;49.80;;;;;;1524904;77;1635;-61
2023/10/16 01:43:44;;;;;;;;;;;21.80;49.70;;;;;;1523591;76;685;-62
2023/10/16 01:45:52;;;;;;;;;;;21.70;49.70;;;;;;1527467;77;809;-62
2023/10/16 01:47:54;;;;;;;;;;;21.80;49.70;;;;;;1524995;77;1924;-61
2023/10/16 01:49:55;;;;;;;;;;;21.80;49.60;;;;;;1527273;77;711;-62
2023/10/16 01:51:57;;;;;;;;;;;21.80;49.60;;;;;;1525368;77;1092;-61
2023/10/16 01:53:59;;;;;;;;;;;21.70;49.60;;;;;;1522960;76;775;-62
2023/10/16 01:56:12;;;;;;;;;;;21.70;49.60;;;;;;1519714;77;1601;-62
2023/10/16 01:58:15;;;;;;;;;;;21.70;49.70;;;;;;1523597;77;837;-62
2023/10/16 02:00:18;;;;;;;;;;;21.70;49.60;;;;;;1529048;77;1172;-62
2023/10/16 02:02:20;;;;;;;;;;;21.70;49.70;;;;;;1516589;76;708;-62
2023/10/16 02:04:22;;;;;;;;;;;21.70;49.70;;;;;;1526639;77;733;-61
2023/10/16 02:06:26;;;;;;;;;;;21.70;49.60;;;;;;1521560;77;746;-61
2023/10/16 02:08:28;;;;;;;;;;;21.70;49.60;;;;;;1521172;76;1936;-61
2023/10/16 02:10:30;;;;;;;;;;;21.70;49.60;;;;;;1528708;77;1590;-61
2023/10/16 02:12:33;;;;;;;;;;;21.70;49.70;;;;;;1520937;77;675;-61
2023/10/16 02:14:39;;;;;;;;;;;21.70;49.60;;;;;;1528689;76;761;-61
2023/10/16 02:16:41;;;;;;;;;;;21.70;49.60;;;;;;1522947;77;1605;-61
2023/10/16 02:18:45;;;;;;;;;;;21.70;49.60;;;;;;1519400;77;976;-61
2023/10/16 02:20:46;;;;;;;;;;;21.70;49.60;;;;;;1526094;76;1667;-61
2023/10/16 02:22:48;;;;;;;;;;;21.70;49.60;;;;;;1511515;77;711;-61
2023/10/16 02:24:50;;;;;;;;;;;21.70;49.60;;;;;;1521771;77;1688;-61
2023/10/16 02:26:57;;;;;;;;;;;21.70;49.60;;;;;;1523249;77;759;-61
2023/10/16 02:29:00;;;;;;;;;;;21.70;49.60;;;;;;1527903;77;1897;-61
2023/10/16 02:31:17;;;;;;;;;;;21.70;49.60;;;;;;1519740;76;1168;-61
2023/10/16 02:33:36;;;;;;;;;;;21.70;49.60;;;;;;1521861;76;2015;-61
2023/10/16 02:35:19;;;;;;;;;;;21.70;49.60;;;;;;1517924;77;1635;-61
2023/10/16 02:37:21;;;;;;;;;;;21.70;49.60;;;;;;1519305;77;1369;-62
2023/10/16 02:39:38;;;;;;;;;;;21.70;49.60;;;;;;1525624;77;733;-61
2023/10/16 02:41:41;;;;;;;;;;;21.70;49.50;;;;;;1527959;76;1126;-61
2023/10/16 02:43:45;;;;;;;;;;;21.70;49.60;;;;;;1527431;76;736;-62
2023/10/16 02:45:51;;;;;;;;;;;21.70;49.60;;;;;;1521204;77;1389;-61
2023/10/16 02:47:51;;;;;;;;;;;21.70;49.60;;;;;;1527360;77;1924;-62
2023/10/16 02:49:53;;;;;;;;;;;21.70;49.60;;;;;;1528986;77;726;-60
2023/10/16 02:51:55;;;;;;;;;;;21.70;49.60;;;;;;1525211;76;1617;-60
2023/10/16 02:54:00;;;;;;;;;;;21.70;49.60;;;;;;1527526;77;1009;-59
2023/10/16 02:56:14;;;;;;;;;;;21.70;49.60;;;;;;1526073;77;1646;-60
2023/10/16 02:58:11;;;;;;;;;;;21.70;49.60;;;;;;1528356;77;1618;-59
2023/10/16 03:02:23;;;;;;;;;;;21.70;49.60;;;;;;1528258;76;1345;-59
2023/10/16 03:04:27;;;;;;;;;;;21.70;49.60;;;;;;1513373;77;816;-59
2023/10/16 03:06:30;;;;;;;;;;;21.70;49.60;;;;;;1523476;77;1758;-59
2023/10/16 03:08:32;;;;;;;;;;;21.70;49.60;;;;;;1522479;76;1945;-60
2023/10/16 03:10:36;;;;;;;;;;;21.60;49.50;;;;;;1495305;78;1109;-59
2023/10/16 03:12:38;;;;;;;;;;;21.60;49.50;;;;;;1526432;77;1699;-62
2023/10/16 03:14:46;;;;;;;;;;;21.70;49.60;;;;;;1528558;76;712;-62
2023/10/16 03:16:48;;;;;;;;;;;21.60;49.50;;;;;;1518104;77;703;-62
2023/10/16 03:18:50;;;;;;;;;;;21.70;49.60;;;;;;1525293;77;964;-62
2023/10/16 03:21:40;;;;;;;;;;;21.60;49.50;;;;;;1519920;77;1509;-62
2023/10/16 03:23:12;;;;;;;;;;;21.60;49.50;;;;;;1503384;76;1534;-62
2023/10/16 03:25:24;;;;;;;;;;;21.70;49.60;;;;;;1523912;77;1632;-62
2023/10/16 03:27:23;;;;;;;;;;;21.70;49.60;;;;;;1520692;77;1717;-61
2023/10/16 03:29:16;;;;;;;;;;;21.60;49.50;;;;;;1520602;77;1936;-62
2023/10/16 03:31:18;;;;;;;;;;;21.60;49.50;;;;;;1518007;76;1143;-61
2023/10/16 03:33:20;;;;;;;;;;;21.60;49.50;;;;;;1527239;77;759;-62
2023/10/16 03:35:26;;;;;;;;;;;21.60;49.50;;;;;;1525525;77;1360;-62
2023/10/16 03:37:26;;;;;;;;;;;21.70;49.60;;;;;;1523967;77;1709;-62
2023/10/16 03:39:28;;;;;;;;;;;21.60;49.40;;;;;;1527110;77;774;-61
2023/10/16 03:41:33;;;;;;;;;;;21.60;49.50;;;;;;1527504;76;1175;-61
2023/10/16 03:43:35;;;;;;;;;;;21.60;49.50;;;;;;1517870;76;702;-61
2023/10/16 03:45:40;;;;;;;;;;;21.70;49.60;;;;;;1527636;77;825;-62
2023/10/16 03:47:42;;;;;;;;;;;21.70;49.60;;;;;;1499344;79;1927;-62
2023/10/16 03:49:46;;;;;;;;;;;21.70;49.60;;;;;;1525423;77;732;-61
2023/10/16 03:51:48;;;;;;;;;;;21.60;49.40;;;;;;1518832;76;1786;-62
2023/10/16 03:53:56;;;;;;;;;;;21.60;49.40;;;;;;1518891;77;690;-62
2023/10/16 03:55:58;;;;;;;;;;;21.70;49.50;;;;;;1528964;77;1613;-62
2023/10/16 03:58:00;;;;;;;;;;;21.70;49.60;;;;;;1524533;77;693;-61
2023/10/16 04:00:14;;;;;;;;;;;21.70;49.60;;;;;;1524936;76;820;-62
2023/10/16 04:02:08;;;;;;;;;;;21.70;49.50;;;;;;1523881;77;1823;-62
2023/10/16 04:04:12;;;;;;;;;;;21.70;49.40;;;;;;1523917;77;719;-62
2023/10/16 04:06:18;;;;;;;;;;;21.70;49.50;;;;;;1522784;77;1794;-61
2023/10/16 04:08:26;;;;;;;;;;;21.60;49.40;;;;;;1523083;76;1933;-61
2023/10/16 04:10:28;;;;;;;;;;;21.60;49.40;;;;;;1528973;77;1113;-62
2023/10/16 04:12:33;;;;;;;;;;;21.60;49.40;;;;;;1520706;77;679;-62
2023/10/16 04:14:50;;;;;;;;;;;21.70;49.50;;;;;;1521854;76;1673;-62
2023/10/16 04:16:54;;;;;;;;;;;21.60;49.40;;;;;;1522934;77;1647;-60
2023/10/16 04:18:56;;;;;;;;;;;21.60;49.40;;;;;;1527925;77;1637;-59
2023/10/16 04:21:37;;;;;;;;;;;21.70;49.40;;;;;;1528617;77;1106;-61
2023/10/16 04:23:01;;;;;;;;;;;21.70;49.50;;;;;;1516340;77;1308;-61
2023/10/16 04:25:07;;;;;;;;;;;21.60;49.40;;;;;;1522374;77;689;-60
2023/10/16 04:33:53;;;;;;;;;;;21.60;49.40;;;;;;1526240;77;967;-61
2023/10/16 04:36:47;;;;;;;;;;;21.70;49.40;;;;;;1520646;77;1630;-61
2023/10/16 04:37:56;;;;;;;;;;;21.70;49.40;;;;;;1516666;77;976;-60
2023/10/16 04:45:24;;;;;;;;;;;21.70;49.40;;;;;;1520392;76;1673;-61
2023/10/16 04:46:55;;;;;;;;;;;21.60;49.30;;;;;;1496303;77;1413;-60
2023/10/16 04:48:48;;;;;;;;;;;21.60;49.40;;;;;;1516145;77;1921;-60
2023/10/16 04:50:49;;;;;;;;;;;21.60;49.40;;;;;;1505332;77;1693;-61
2023/10/16 04:55:02;;;;;;;;;;;21.60;49.40;;;;;;1517905;77;801;-59
2023/10/16 05:01:54;;;;;;;;;;;21.60;49.30;;;;;;1524158;76;1238;-60
2023/10/16 05:05:56;;;;;;;;;;;21.60;49.30;;;;;;1514257;77;724;-59
2023/10/16 05:08:13;;;;;;;;;;;21.60;49.30;;;;;;1525907;76;1639;-61
2023/10/16 05:19:16;;;;;;;;;;;21.60;49.40;;;;;;1481499;77;986;-59
2023/10/16 06:14:45;;;;;;;;;;;21.60;49.30;;;;;;1521322;76;735;-60
2023/10/16 06:16:45;;;;;;;;;;;21.60;49.30;;;;;;1525826;77;1000;-60
2023/10/16 06:18:48;;;;;;;;;;;21.60;49.30;;;;;;1516554;77;675;-60
2023/10/16 06:20:52;;;;;;;;;;;21.50;49.30;;;;;;1527659;77;1118;-59
2023/10/16 06:22:54;;;;;;;;;;;21.60;49.30;;;;;;1521663;76;1365;-60
2023/10/16 06:24:56;;;;;;;;;;;21.60;49.30;;;;;;1529413;77;673;-59
2023/10/16 06:27:08;;;;;;;;;;;21.60;49.30;;;;;;1520163;77;738;-60
2023/10/16 06:29:02;;;;;;;;;;;21.50;49.30;;;;;;1523197;77;1929;-60
2023/10/16 06:31:05;;;;;;;;;;;21.50;49.20;;;;;;1527106;76;1150;-59
2023/10/16 06:33:07;;;;;;;;;;;21.60;49.20;;;;;;1527348;77;689;-60
2023/10/16 06:35:09;;;;;;;;;;;21.60;49.30;;;;;;1519589;77;754;-60
2023/10/16 06:37:16;;;;;;;;;;;21.60;49.20;;;;;;1521743;77;1622;-59
2023/10/16 06:39:28;;;;;;;;;;;21.60;49.20;;;;;;1523269;77;1695;-58
2023/10/16 06:41:27;;;;;;;;;;;21.20;48.90;;;;;;1522491;76;1698;-59
2023/10/16 06:43:30;;;;;;;;;;;21.60;49.20;;;;;;1527607;76;773;-59
2023/10/16 06:47:54;;;;;;;;;;;21.50;49.10;;;;;;1521454;77;720;-58
2023/10/16 06:49:56;;;;;;;;;;;21.60;49.20;;;;;;1524913;77;1928;-60
2023/10/16 06:51:58;;;;;;;;;;;21.60;49.10;;;;;;1514848;77;1558;-58
2023/10/16 06:54:01;;;;;;;;;;;21.60;49.20;;;;;;1527994;76;687;-59
2023/10/16 06:56:03;;;;;;;;;;;21.60;49.20;;;;;;1529797;77;705;-59
2023/10/16 06:58:05;;;;;;;;;;;21.60;49.20;;;;;;1529830;77;688;-59
2023/10/16 07:00:09;;;;;;;;;;;21.60;49.10;;;;;;1528594;77;757;-61
2023/10/16 07:02:19;;;;;;;;;;;21.50;49.20;;;;;;1526279;76;1145;-60
2023/10/16 07:04:20;;;;;;;;;;;21.60;49.20;;;;;;1525482;77;971;-59
2023/10/16 07:06:24;;;;;;;;;;;21.60;49.10;;;;;;1522820;77;1431;-60
2023/10/16 07:08:26;;;;;;;;;;;21.60;49.10;;;;;;1525979;76;687;-60
2023/10/16 07:10:28;;;;;;;;;;;21.60;49.10;;;;;;1525015;77;1927;-60
2023/10/16 07:12:50;;;;;;;;;;;21.50;49.10;;;;;;1523646;77;790;-60
2023/10/16 07:14:33;;;;;;;;;;;21.60;49.10;;;;;;1522238;76;1393;-59
2023/10/16 07:16:35;;;;;;;;;;;21.50;49.10;;;;;;1527631;77;690;-62
2023/10/16 07:18:42;;;;;;;;;;;21.50;49.10;;;;;;1526443;77;1534;-61
2023/10/16 07:20:55;;;;;;;;;;;21.60;49.20;;;;;;1522053;77;1596;-61
2023/10/16 07:22:59;;;;;;;;;;;21.50;49.10;;;;;;1519217;77;1689;-60
2023/10/16 07:26:00;;;;;;;;;;;21.60;49.10;;;;;;1522562;77;1692;-61
2023/10/16 07:27:12;;;;;;;;;;;21.60;49.00;;;;;;1503179;77;1105;-62
2023/10/16 07:29:14;;;;;;;;;;;21.60;49.10;;;;;;1528428;76;1936;-61
2023/10/16 07:31:16;;;;;;;;;;;21.10;48.80;;;;;;1520272;77;1155;-61
2023/10/16 07:33:20;;;;;;;;;;;21.60;49.10;;;;;;1525732;77;1564;-60
2023/10/16 07:35:22;;;;;;;;;;;21.50;49.10;;;;;;1523069;77;1869;-61
2023/10/16 07:37:24;;;;;;;;;;;21.50;49.10;;;;;;1521960;77;691;-61
2023/10/16 07:39:28;;;;;;;;;;;21.50;49.10;;;;;;1529274;76;658;-61
2023/10/16 07:41:30;;;;;;;;;;;21.60;49.10;;;;;;1529710;77;1164;-62
2023/10/16 07:43:36;;;;;;;;;;;21.50;49.10;;;;;;1512112;76;693;-61
2023/10/16 07:45:38;;;;;;;;;;;21.50;49.10;;;;;;1516013;77;669;-61
2023/10/16 07:47:40;;;;;;;;;;;21.50;49.10;;;;;;1526392;77;1388;-61
2023/10/16 07:49:42;;;;;;;;;;;21.50;49.10;;;;;;1526148;77;1924;-61
2023/10/16 07:51:47;;;;;;;;;;;21.50;49.10;;;;;;1525908;76;1140;-61
2023/10/16 07:53:49;;;;;;;;;;;21.50;49.10;;;;;;1528095;77;681;-61
2023/10/16 07:55:51;;;;;;;;;;;21.50;49.10;;;;;;1520467;77;824;-61
2023/10/16 07:57:53;;;;;;;;;;;21.50;49.10;;;;;;1523030;77;698;-61
2023/10/16 07:59:55;;;;;;;;;;;21.50;49.10;;;;;;1524577;77;733;-59
2023/10/16 08:02:00;;;;;;;;;;;21.50;49.10;;;;;;1520903;76;1401;-61
2023/10/16 08:04:02;;;;;;;;;;;21.50;49.10;;;;;;1521748;77;636;-61
2023/10/16 08:06:12;;;;;;;;;;;21.50;49.20;;;;;;1529374;77;759;-62
2023/10/16 08:08:11;;;;;;;;;;;21.50;49.10;;;;;;1525644;76;1686;-62
2023/10/16 08:12:35;;;;;;;;;;;21.50;49.10;;;;;;1524355;77;1736;-61
2023/10/16 08:14:37;;;;;;;;;;;21.50;49.10;;;;;;1525566;76;704;-61
2023/10/16 08:16:40;;;;;;;;;;;21.50;49.20;;;;;;1517813;77;1489;-62
2023/10/16 08:18:42;;;;;;;;;;;21.50;49.10;;;;;;1517721;77;690;-61
2023/10/16 08:22:54;;;;;;;;;;;21.50;49.10;;;;;;1476983;77;1069;-61
2023/10/16 08:24:59;;;;;;;;;;;21.50;49.10;;;;;;1524731;77;660;-62
2023/10/16 08:27:22;;;;;;;;;;;21.50;49.10;;;;;;1526435;77;772;-62
2023/10/16 08:29:34;;;;;;;;;;;21.50;49.10;;;;;;1519701;77;1933;-62
2023/10/16 08:31:26;;;;;;;;;;;21.50;49.20;;;;;;1524355;76;1654;-62
2023/10/16 08:33:30;;;;;;;;;;;21.50;49.10;;;;;;1518897;77;727;-62
2023/10/16 08:35:39;;;;;;;;;;;21.50;49.10;;;;;;1521154;77;851;-61
2023/10/16 08:37:41;;;;;;;;;;;21.50;49.20;;;;;;1526592;77;709;-60
2023/10/16 08:39:50;;;;;;;;;;;21.50;49.20;;;;;;1526626;77;786;-62
2023/10/16 08:41:53;;;;;;;;;;;21.50;49.20;;;;;;1515712;77;1814;-61
2023/10/16 08:44:03;;;;;;;;;;;21.50;49.20;;;;;;1524675;76;1602;-61
2023/10/16 08:45:59;;;;;;;;;;;21.50;49.20;;;;;;1519892;77;1465;-61
2023/10/16 08:48:08;;;;;;;;;;;21.50;49.20;;;;;;1522601;77;715;-60
2023/10/16 08:50:17;;;;;;;;;;;21.50;49.20;;;;;;1524691;77;1896;-62
2023/10/16 08:52:20;;;;;;;;;;;21.50;49.20;;;;;;1519496;77;1684;-60
2023/10/16 08:56:40;;;;;;;;;;;21.50;49.20;;;;;;1527994;77;735;-61
2023/10/16 08:58:49;;;;;;;;;;;21.50;49.20;;;;;;1528679;77;1508;-61
2023/10/16 09:00:48;;;;;;;;;;;21.50;49.20;;;;;;1519622;77;1586;-61
2023/10/16 09:02:55;;;;;;;;;;;21.50;49.20;;;;;;1522381;76;1731;-61
2023/10/16 09:04:54;;;;;;;;;;;21.50;49.20;;;;;;1525519;77;1668;-62
2023/10/16 09:06:56;;;;;;;;;;;21.50;49.30;;;;;;1496593;79;859;-62
2023/10/16 09:08:58;;;;;;;;;;;21.50;49.20;;;;;;1485373;78;824;-61
2023/10/16 09:11:06;;;;;;;;;;;21.50;49.30;;;;;;1521555;77;1925;-62
2023/10/16 09:13:16;;;;;;;;;;;21.50;49.20;;;;;;1524874;76;1617;-62
2023/10/16 09:15:18;;;;;;;;;;;21.50;49.30;;;;;;1524980;77;694;-62
2023/10/16 09:17:20;;;;;;;;;;;21.50;49.30;;;;;;1499047;79;1239;-62
2023/10/16 09:19:34;;;;;;;;;;;21.50;49.30;;;;;;1481839;79;689;-61
2023/10/16 09:21:38;;;;;;;;;;;21.50;49.30;;;;;;1453655;81;1194;-61
2023/10/16 09:23:42;;;;;;;;;;;21.50;49.20;;;;;;1488393;78;657;-62
2023/10/16 09:25:47;;;;;;;;;;;21.50;49.30;;;;;;1485856;79;1392;-62
2023/10/16 09:27:49;;;;;;;;;;;21.50;49.30;;;;;;1481580;80;689;-61
2023/10/16 09:29:54;;;;;;;;;;;21.50;49.30;;;;;;1479708;79;1943;-62
2023/10/16 09:31:57;;;;;;;;;;;21.50;49.30;;;;;;1486518;78;1162;-62
2023/10/16 09:34:00;;;;;;;;;;;21.50;49.30;;;;;;1487024;79;733;-61
2023/10/16 09:36:09;;;;;;;;;;;21.50;49.20;;;;;;1484606;79;814;-62
2023/10/16 09:38:19;;;;;;;;;;;21.50;49.20;;;;;;1487965;79;1569;-61
2023/10/16 09:40:44;;;;;;;;;;;21.50;49.30;;;;;;1487208;78;1553;-62
2023/10/16 09:42:45;;;;;;;;;;;21.50;49.30;;;;;;1480098;79;1620;-61
2023/10/16 09:47:25;;;;;;;;;;;21.50;49.30;;;;;;1430048;81;1189;-62
2023/10/16 09:49:10;;;;;;;;;;;21.50;49.30;;;;;;1471015;79;1004;-61
2023/10/16 09:51:12;;;;;;;;;;;21.50;49.30;;;;;;1467184;79;1942;-60
2023/10/16 09:53:17;;;;;;;;;;;21.50;49.30;;;;;;1509537;76;1350;-60
2023/10/16 09:55:22;;;;;;;;;;;21.50;49.30;;;;;;1507395;77;1653;-60
2023/10/16 09:57:27;;;;;;;;;;;21.50;49.40;;;;;;1520264;77;1623;-59
2023/10/16 09:59:38;;;;;;;;;;;21.50;49.30;;;;;;1513022;78;1596;-60
2023/10/16 10:01:42;;;;;;;;;;;21.50;49.40;;;;;;1514784;76;1685;-60
2023/10/16 10:03:43;;;;;;;;;;;21.50;49.40;;;;;;1517956;78;1946;-59
2023/10/16 10:05:55;;;;;;;;;;;21.50;49.40;;;;;;1516897;78;896;-59
2023/10/16 10:07:58;;;;;;;;;;;21.50;49.40;;;;;;1508541;76;1580;-60
2023/10/16 10:09:59;;;;;;;;;;;21.50;49.40;;;;;;1512137;78;1947;-60
2023/10/16 10:12:13;;;;;;;;;;;21.50;49.40;;;;;;1515399;78;1143;-59
2023/10/16 10:14:09;;;;;;;;;;;21.50;49.40;;;;;;1513350;76;1918;-60
2023/10/16 10:16:13;;;;;;;;;;;21.50;49.30;;;;;;1513250;77;685;-59
2023/10/16 10:20:41;;;;;;;;;;;21.50;49.40;;;;;;1518347;78;1672;-60
2023/10/16 10:22:45;;;;;;;;;;;21.50;49.40;;;;;;1517477;76;1578;-58
2023/10/16 10:24:50;;;;;;;;;;;21.50;49.40;;;;;;1511141;78;1436;-58
2023/10/16 10:26:55;;;;;;;;;;;21.50;49.40;;;;;;1515024;78;1502;-60
2023/10/16 10:29:09;;;;;;;;;;;21.50;49.40;;;;;;1515447;78;749;-59
2023/10/16 10:31:11;;;;;;;;;;;21.50;49.40;;;;;;1514513;76;1920;-60
2023/10/16 10:33:13;;;;;;;;;;;21.50;49.40;;;;;;1508444;78;723;-62
2023/10/16 10:35:27;;;;;;;;;;;21.50;49.40;;;;;;1519755;78;780;-61
2023/10/16 10:37:48;;;;;;;;;;;21.50;49.40;;;;;;1518570;78;1655;-62
2023/10/16 10:39:47;;;;;;;;;;;21.40;49.30;;;;;;1516976;76;1658;-62
2023/10/16 10:41:51;;;;;;;;;;;21.50;49.40;;;;;;1515537;78;1131;-60
2023/10/16 10:44:03;;;;;;;;;;;21.50;49.40;;;;;;1514742;76;1683;-62
2023/10/16 10:45:58;;;;;;;;;;;21.50;49.40;;;;;;1517366;78;1542;-62
2023/10/16 10:48:04;;;;;;;;;;;21.50;49.40;;;;;;1510959;78;787;-62
2023/10/16 10:50:12;;;;;;;;;;;21.50;49.40;;;;;;1514872;78;1926;-61
2023/10/16 10:52:14;;;;;;;;;;;21.40;49.30;;;;;;1509267;76;1456;-62
2023/10/16 10:54:20;;;;;;;;;;;21.40;49.30;;;;;;1510501;78;883;-62
2023/10/16 10:56:30;;;;;;;;;;;21.50;49.40;;;;;;1498989;79;1142;-61
2023/10/16 10:58:31;;;;;;;;;;;21.50;49.40;;;;;;1510613;78;1658;-61
2023/10/16 11:04:37;;;;;;;;;;;21.50;49.50;;;;;;1512010;78;1411;-61
2023/10/16 11:06:48;;;;;;;;;;;21.40;49.30;;;;;;1518113;78;696;-61
2023/10/16 11:08:44;;;;;;;;;;;21.40;49.30;;;;;;1516153;76;1691;-61
2023/10/16 11:10:47;;;;;;;;;;;21.50;49.50;;;;;;1511940;78;1940;-62
2023/10/16 11:12:48;;;;;;;;;;;21.50;49.40;;;;;;1517967;78;727;-60
2023/10/16 11:14:51;;;;;;;;;;;21.50;49.40;;;;;;1513143;76;687;-61
2023/10/16 11:16:53;;;;;;;;;;;21.50;49.40;;;;;;1511066;77;731;-62
2023/10/16 11:18:58;;;;;;;;;;;21.40;49.40;;;;;;1510834;78;1562;-62
2023/10/16 11:21:07;;;;;;;;;;;21.50;49.40;;;;;;1508968;77;1051;-60
2023/10/16 11:23:15;;;;;;;;;;;21.50;49.40;;;;;;1518507;76;658;-61
2023/10/16 11:25:16;;;;;;;;;;;21.40;49.40;;;;;;1507090;78;724;-62
2023/10/16 11:27:20;;;;;;;;;;;21.50;49.40;;;;;;1519807;78;1715;-60
2023/10/16 11:29:22;;;;;;;;;;;21.50;49.40;;;;;;1511184;78;728;-61
2023/10/16 11:31:25;;;;;;;;;;;21.40;49.40;;;;;;1495679;77;1922;-62
2023/10/16 11:34:00;;;;;;;;;;;21.40;49.30;;;;;;1505636;78;1683;-62
2023/10/16 11:35:54;;;;;;;;;;;21.40;49.30;;;;;;1513217;78;1672;-60
2023/10/16 11:37:59;;;;;;;;;;;21.50;49.50;;;;;;1513696;78;872;-61
2023/10/16 11:40:01;;;;;;;;;;;21.50;49.50;;;;;;1491579;77;1533;-61
2023/10/16 11:42:03;;;;;;;;;;;21.50;49.50;;;;;;1518445;78;1135;-61
2023/10/16 11:44:14;;;;;;;;;;;21.50;49.50;;;;;;1517079;76;689;-62
2023/10/16 11:46:38;;;;;;;;;;;21.50;49.50;;;;;;1515701;78;1323;-61
2023/10/16 11:48:35;;;;;;;;;;;21.50;49.50;;;;;;1512020;78;1598;-61
2023/10/16 11:50:40;;;;;;;;;;;21.50;49.50;;;;;;1518076;78;1917;-61
2023/10/16 11:52:42;;;;;;;;;;;21.50;49.40;;;;;;1514058;76;743;-61
2023/10/16 11:54:45;;;;;;;;;;;21.40;49.30;;;;;;1512131;78;775;-60
2023/10/16 11:56:47;;;;;;;;;;;21.50;49.40;;;;;;1505332;78;731;-61
2023/10/16 11:58:49;;;;;;;;;;;21.50;49.40;;;;;;1518221;78;725;-61
2023/10/16 12:00:56;;;;;;;;;;;21.40;49.30;;;;;;1514306;76;1555;-61
2023/10/16 12:02:58;;;;;;;;;;;21.50;49.40;;;;;;1517228;77;1505;-61
2023/10/16 12:05:00;;;;;;;;;;;21.50;49.50;;;;;;1516166;77;666;-61
2023/10/16 12:07:02;;;;;;;;;;;21.50;49.50;;;;;;1519730;76;706;-61
2023/10/16 12:09:12;;;;;;;;;;;21.40;49.40;;;;;;1518174;78;728;-61
2023/10/16 12:11:08;;;;;;;;;;;21.40;49.30;;;;;;1514101;78;1952;-61
2023/10/16 12:13:10;;;;;;;;;;;21.40;49.40;;;;;;1516656;76;761;-61
2023/10/16 12:15:12;;;;;;;;;;;21.40;49.40;;;;;;1518414;77;1577;-61
2023/10/16 12:17:19;;;;;;;;;;;21.50;49.40;;;;;;1518042;77;709;-61
2023/10/16 12:19:19;;;;;;;;;;;21.40;49.30;;;;;;1516108;78;1574;-61
2023/10/16 12:21:21;;;;;;;;;;;21.40;49.30;;;;;;1511098;76;1098;-61
2023/10/16 12:23:24;;;;;;;;;;;21.40;49.40;;;;;;1512040;78;776;-61
2023/10/16 12:25:27;;;;;;;;;;;21.40;49.30;;;;;;1515985;78;683;-61
2023/10/16 12:27:29;;;;;;;;;;;21.40;49.30;;;;;;1518340;77;1653;-63
2023/10/16 12:29:31;;;;;;;;;;;21.40;49.40;;;;;;1520309;78;1381;-63
2023/10/16 12:31:33;;;;;;;;;;;21.50;49.50;;;;;;1517057;76;1944;-62
2023/10/16 12:33:37;;;;;;;;;;;21.40;49.40;;;;;;1521034;78;787;-60
2023/10/16 12:35:38;;;;;;;;;;;21.40;49.30;;;;;;1521153;78;1658;-60
2023/10/16 12:37:41;;;;;;;;;;;21.40;49.30;;;;;;1516088;78;795;-60
2023/10/16 12:39:45;;;;;;;;;;;21.50;49.40;;;;;;1507788;76;687;-59
2023/10/16 12:41:47;;;;;;;;;;;21.40;49.30;;;;;;1517766;78;1167;-60
2023/10/16 12:43:50;;;;;;;;;;;21.40;49.30;;;;;;1507219;76;1629;-62
2023/10/16 12:45:52;;;;;;;;;;;21.40;49.40;;;;;;1519741;77;718;-61
2023/10/16 12:47:58;;;;;;;;;;;21.40;49.30;;;;;;1513049;78;755;-61
2023/10/16 12:49:58;;;;;;;;;;;21.40;49.30;;;;;;1515286;77;1238;-61
2023/10/16 12:52:00;;;;;;;;;;;21.50;49.50;;;;;;1518327;76;1945;-61
2023/10/16 12:54:03;;;;;;;;;;;21.40;49.40;;;;;;1518842;78;719;-61
2023/10/16 12:56:06;;;;;;;;;;;21.40;49.30;;;;;;1520095;78;1352;-61
2023/10/16 12:58:12;;;;;;;;;;;21.40;49.40;;;;;;1519743;78;717;-61
2023/10/16 13:00:16;;;;;;;;;;;21.50;49.50;;;;;;1515270;76;1642;-61
2023/10/16 13:02:25;;;;;;;;;;;21.40;49.40;;;;;;1519076;78;685;-61
2023/10/16 13:04:24;;;;;;;;;;;21.40;49.40;;;;;;1513457;78;988;-61
2023/10/16 13:06:26;;;;;;;;;;;21.40;49.40;;;;;;1508668;78;990;-61
2023/10/16 13:08:29;;;;;;;;;;;21.40;49.40;;;;;;1511692;76;702;-60
2023/10/16 13:10:30;;;;;;;;;;;21.40;49.40;;;;;;1514332;78;1517;-61
2023/10/16 13:12:32;;;;;;;;;;;21.50;49.50;;;;;;1506829;78;1948;-61
2023/10/16 13:14:35;;;;;;;;;;;21.40;49.40;;;;;;1517921;76;787;-61
2023/10/16 13:16:37;;;;;;;;;;;22.20;49.80;;;;;;1509597;78;737;-61
2023/10/16 13:18:39;;;;;;;;;;;21.40;49.40;;;;;;1509961;78;706;-60
2023/10/16 13:20:41;;;;;;;;;;;21.40;49.40;;;;;;1508404;78;1148;-60
2023/10/16 13:22:43;;;;;;;;;;;21.40;49.40;;;;;;1521381;78;707;-61
2023/10/16 13:24:45;;;;;;;;;;;21.40;49.40;;;;;;1510723;76;1487;-60
2023/10/16 13:26:52;;;;;;;;;;;21.50;49.50;;;;;;1507762;78;652;-59
2023/10/16 13:28:50;;;;;;;;;;;21.40;49.40;;;;;;1512855;77;1473;-60
2023/10/16 13:30:52;;;;;;;;;;;21.40;49.40;;;;;;1509130;78;1949;-59
2023/10/16 13:32:54;;;;;;;;;;;21.40;49.40;;;;;;1517033;76;776;-58
2023/10/16 13:34:57;;;;;;;;;;;21.40;49.40;;;;;;1519476;78;684;-58
2023/10/16 13:37:08;;;;;;;;;;;21.40;49.40;;;;;;1519030;78;775;-59
2023/10/16 13:39:11;;;;;;;;;;;21.40;49.40;;;;;;1511161;77;1602;-59
2023/10/16 13:41:19;;;;;;;;;;;21.40;49.30;;;;;;1517536;78;1156;-60
2023/10/16 13:43:22;;;;;;;;;;;21.40;49.40;;;;;;1514228;76;817;-59
2023/10/16 13:45:25;;;;;;;;;;;21.40;49.40;;;;;;1514058;78;800;-58
2023/10/16 13:47:27;;;;;;;;;;;21.40;49.40;;;;;;1509186;78;669;-60
2023/10/16 13:49:29;;;;;;;;;;;21.40;49.40;;;;;;1514677;78;679;-59
2023/10/16 13:51:35;;;;;;;;;;;21.40;49.40;;;;;;1517800;76;1929;-60
2023/10/16 13:53:34;;;;;;;;;;;21.40;49.40;;;;;;1509318;78;1641;-59
2023/10/16 13:55:36;;;;;;;;;;;21.40;49.40;;;;;;1515674;78;760;-59
2023/10/16 13:57:42;;;;;;;;;;;21.40;49.40;;;;;;1517628;78;703;-60
2023/10/16 13:59:43;;;;;;;;;;;21.40;49.40;;;;;;1520186;76;1559;-59
2023/10/16 14:01:46;;;;;;;;;;;21.40;49.40;;;;;;1516885;78;1132;-58
2023/10/16 14:03:49;;;;;;;;;;;21.40;49.40;;;;;;1519643;78;760;-59